Time;durP1;ratioP1;P1;durP2;ratioP2;P2;SDS_P1;SDS_P2;PMS_P1;PMS_P2;Temp;Humidity;BMP_temperature;BMP_pressure;BME280_temperature;BME280_humidity;BME280_pressure;Samples;Min_cycle;Max_cycle;Signal;HPM_P1;HPM_P2
2022/08/16 00:00:20;;;;;;;11.40;10.30;;;;;;;;;;2096326;28;20036;-61
2022/08/16 00:01:39;;;;;;;10.82;10.00;;;;;;;;;;2098748;28;20060;-61
2022/08/16 00:02:59;;;;;;;11.55;10.38;;;;;;;;;;2099796;28;20036;-61
2022/08/16 00:04:18;;;;;;;11.82;10.50;;;;;;;;;;2098107;28;20032;-61
2022/08/16 00:05:39;;;;;;;11.57;10.30;;;;;;;;;;2096315;28;20056;-61
2022/08/16 00:06:58;;;;;;;13.50;11.98;;;;;;;;;;2099255;28;20084;-61
2022/08/16 00:08:18;;;;;;;12.35;11.10;;;;;;;;;;2096375;28;20376;-62
2022/08/16 00:09:37;;;;;;;13.02;11.20;;;;;;;;;;2096636;28;20032;-62
2022/08/16 00:10:55;;;;;;;12.18;10.80;;;;;;;;;;2099673;28;20032;-61
2022/08/16 00:12:14;;;;;;;11.77;10.68;;;;;;;;;;2099376;28;20020;-61
2022/08/16 00:13:34;;;;;;;11.57;10.48;;;;;;;;;;2097154;28;20099;-61
2022/08/16 00:14:53;;;;;;;11.25;10.02;;;;;;;;;;2096683;28;20036;-61
2022/08/16 00:16:12;;;;;;;13.13;11.13;;;;;;;;;;2100478;28;20427;-62
2022/08/16 00:17:31;;;;;;;13.30;11.00;;;;;;;;;;2097601;28;20404;-61
2022/08/16 00:18:50;;;;;;;11.60;10.55;;;;;;;;;;2095839;28;20404;-61
2022/08/16 00:20:09;;;;;;;11.88;10.90;;;;;;;;;;2097669;28;20036;-61
2022/08/16 00:21:28;;;;;;;12.07;10.98;;;;;;;;;;2096514;28;20036;-61
2022/08/16 00:22:47;;;;;;;11.90;10.70;;;;;;;;;;2097303;28;20045;-61
2022/08/16 00:24:06;;;;;;;12.18;10.82;;;;;;;;;;2097547;28;20498;-62
2022/08/16 00:25:25;;;;;;;11.90;10.75;;;;;;;;;;2100662;28;20040;-61
2022/08/16 00:26:44;;;;;;;12.32;11.30;;;;;;;;;;2100084;28;20466;-61
2022/08/16 00:28:04;;;;;;;12.48;11.45;;;;;;;;;;2098972;28;20037;-61
2022/08/16 00:29:23;;;;;;;13.05;11.93;;;;;;;;;;2098388;28;20028;-61
2022/08/16 00:30:41;;;;;;;12.98;11.20;;;;;;;;;;2097567;28;20032;-61
2022/08/16 00:32:01;;;;;;;12.68;11.23;;;;;;;;;;2095387;28;20664;-61
2022/08/16 00:33:20;;;;;;;12.27;10.98;;;;;;;;;;2097213;28;20104;-61
2022/08/16 00:34:39;;;;;;;12.90;11.82;;;;;;;;;;2099131;28;20115;-61
2022/08/16 00:35:58;;;;;;;11.63;10.55;;;;;;;;;;2096518;28;20025;-61
2022/08/16 00:37:17;;;;;;;12.50;11.35;;;;;;;;;;2097690;28;20032;-61
2022/08/16 00:38:36;;;;;;;12.48;11.50;;;;;;;;;;2100928;28;20500;-61
2022/08/16 00:39:55;;;;;;;12.15;11.10;;;;;;;;;;2094398;28;20116;-61
2022/08/16 00:41:14;;;;;;;12.52;11.32;;;;;;;;;;2097851;28;20125;-61
2022/08/16 00:42:33;;;;;;;12.35;10.55;;;;;;;;;;2100512;28;20028;-61
2022/08/16 00:43:52;;;;;;;13.85;12.07;;;;;;;;;;2097397;28;20500;-61
2022/08/16 00:45:22;;;;;;;12.30;11.00;;;;;;;;;;2097147;28;20036;-61
2022/08/16 00:47:07;;;;;;;12.43;11.35;;;;;;;;;;2098224;28;20115;-61
2022/08/16 00:48:27;;;;;;;11.57;10.57;;;;;;;;;;2098535;28;20057;-61
2022/08/16 00:49:46;;;;;;;13.32;12.07;;;;;;;;;;2099512;28;20036;-61
2022/08/16 00:51:05;;;;;;;12.40;11.30;;;;;;;;;;2099164;28;20024;-61
2022/08/16 00:52:24;;;;;;;13.15;11.75;;;;;;;;;;2097170;28;20028;-62
2022/08/16 00:53:43;;;;;;;14.88;12.18;;;;;;;;;;2098972;28;20469;-62
2022/08/16 00:55:02;;;;;;;14.95;11.43;;;;;;;;;;2098461;28;20032;-61
2022/08/16 00:56:23;;;;;;;12.65;11.55;;;;;;;;;;2100440;28;20118;-61
2022/08/16 00:57:42;;;;;;;15.10;11.85;;;;;;;;;;2100125;28;20391;-61
2022/08/16 00:59:02;;;;;;;13.23;11.93;;;;;;;;;;2100739;28;20457;-61
2022/08/16 01:00:23;;;;;;;12.75;11.52;;;;;;;;;;2098106;28;20028;-61
2022/08/16 01:01:43;;;;;;;12.52;11.55;;;;;;;;;;2099272;28;20032;-61
2022/08/16 01:03:05;;;;;;;12.45;11.30;;;;;;;;;;2100694;28;20400;-61
2022/08/16 01:04:25;;;;;;;12.13;10.93;;;;;;;;;;2099216;28;20037;-61
2022/08/16 01:05:45;;;;;;;13.23;11.88;;;;;;;;;;2099504;28;20553;-61
2022/08/16 01:07:05;;;;;;;13.32;12.23;;;;;;;;;;2098993;28;20029;-61
2022/08/16 01:08:25;;;;;;;13.32;11.95;;;;;;;;;;2098493;28;20061;-61
2022/08/16 01:09:44;;;;;;;12.18;11.18;;;;;;;;;;2100100;28;20333;-61
2022/08/16 01:11:04;;;;;;;12.70;11.52;;;;;;;;;;2100886;28;20431;-61
2022/08/16 01:12:23;;;;;;;13.00;11.90;;;;;;;;;;2096881;28;20469;-61
2022/08/16 01:13:43;;;;;;;12.85;11.60;;;;;;;;;;2100163;28;20036;-61
2022/08/16 01:15:03;;;;;;;13.98;11.90;;;;;;;;;;2099766;28;20032;-61
2022/08/16 01:16:24;;;;;;;13.73;12.30;;;;;;;;;;2099506;28;20110;-61
2022/08/16 01:17:45;;;;;;;13.55;12.20;;;;;;;;;;2099078;28;20032;-61
2022/08/16 01:19:10;;;;;;;13.63;12.32;;;;;;;;;;2099195;28;20100;-61
2022/08/16 01:20:32;;;;;;;13.55;12.30;;;;;;;;;;2100880;28;20036;-61
2022/08/16 01:22:09;;;;;;;13.93;12.55;;;;;;;;;;2099328;28;20037;-61
2022/08/16 01:23:35;;;;;;;16.35;12.00;;;;;;;;;;2101207;28;20103;-61
2022/08/16 01:24:57;;;;;;;15.27;12.13;;;;;;;;;;2099177;28;20025;-61
2022/08/16 01:26:16;;;;;;;14.40;13.10;;;;;;;;;;2099657;28;20044;-61
2022/08/16 01:27:37;;;;;;;13.30;12.10;;;;;;;;;;2098253;28;20099;-61
2022/08/16 01:29:01;;;;;;;12.48;11.30;;;;;;;;;;2099696;28;20028;-61
2022/08/16 01:30:22;;;;;;;13.30;12.00;;;;;;;;;;2098454;28;20028;-61
2022/08/16 01:31:41;;;;;;;12.63;11.50;;;;;;;;;;2099318;28;20037;-61
2022/08/16 01:33:02;;;;;;;13.02;11.80;;;;;;;;;;2099198;28;20051;-61
2022/08/16 01:34:21;;;;;;;12.95;11.60;;;;;;;;;;2098828;28;20095;-60
2022/08/16 01:35:46;;;;;;;14.10;12.68;;;;;;;;;;2098510;28;20389;-61
2022/08/16 01:37:07;;;;;;;13.45;12.05;;;;;;;;;;2099026;28;20400;-61
2022/08/16 01:38:31;;;;;;;13.18;12.02;;;;;;;;;;2101217;28;20457;-61
2022/08/16 01:39:50;;;;;;;14.55;13.20;;;;;;;;;;2099698;28;20032;-61
2022/08/16 01:41:11;;;;;;;14.65;12.45;;;;;;;;;;2099845;28;20040;-61
2022/08/16 01:42:30;;;;;;;15.98;12.98;;;;;;;;;;2097918;28;20078;-60
2022/08/16 01:43:50;;;;;;;13.25;12.18;;;;;;;;;;2100660;28;20032;-61
2022/08/16 01:45:09;;;;;;;13.25;12.05;;;;;;;;;;2098982;28;20028;-61
2022/08/16 01:46:30;;;;;;;13.60;12.27;;;;;;;;;;2099611;28;20032;-61
2022/08/16 01:47:50;;;;;;;14.93;12.02;;;;;;;;;;2098727;28;20025;-61
2022/08/16 01:49:11;;;;;;;16.25;12.57;;;;;;;;;;2100389;28;20115;-61
2022/08/16 01:50:30;;;;;;;12.85;11.65;;;;;;;;;;2099373;28;20377;-62
2022/08/16 01:51:53;;;;;;;13.23;12.10;;;;;;;;;;2097299;28;20374;-61
2022/08/16 01:53:13;;;;;;;13.35;11.80;;;;;;;;;;2099171;28;20490;-62
2022/08/16 01:54:32;;;;;;;13.32;12.10;;;;;;;;;;2100570;28;20040;-61
2022/08/16 01:55:51;;;;;;;14.20;12.88;;;;;;;;;;2099051;28;20033;-61
2022/08/16 01:57:09;;;;;;;13.80;12.70;;;;;;;;;;2099748;28;20032;-61
2022/08/16 01:58:28;;;;;;;14.00;12.63;;;;;;;;;;2097924;28;20036;-61
2022/08/16 01:59:47;;;;;;;15.25;12.63;;;;;;;;;;2099085;28;20040;-62
2022/08/16 02:01:06;;;;;;;14.15;12.73;;;;;;;;;;2099336;28;20032;-61
2022/08/16 02:02:26;;;;;;;14.75;13.23;;;;;;;;;;2096879;28;20032;-61
2022/08/16 02:03:45;;;;;;;13.95;12.63;;;;;;;;;;2099286;28;20044;-61
2022/08/16 02:05:04;;;;;;;15.93;12.32;;;;;;;;;;2098472;28;20056;-61
2022/08/16 02:06:24;;;;;;;13.20;11.82;;;;;;;;;;2098182;28;20036;-62
2022/08/16 02:07:43;;;;;;;14.52;12.45;;;;;;;;;;2098676;28;20090;-61
2022/08/16 02:09:02;;;;;;;13.77;12.23;;;;;;;;;;2098261;28;20056;-61
2022/08/16 02:10:22;;;;;;;13.90;12.48;;;;;;;;;;2099232;28;20408;-61
2022/08/16 02:11:43;;;;;;;13.48;12.23;;;;;;;;;;2099012;28;20021;-62
2022/08/16 02:13:04;;;;;;;15.45;12.98;;;;;;;;;;2100195;28;20478;-61
2022/08/16 02:14:25;;;;;;;14.10;12.70;;;;;;;;;;2101280;28;20040;-61
2022/08/16 02:15:44;;;;;;;15.13;13.35;;;;;;;;;;2096891;28;20103;-62
2022/08/16 02:17:04;;;;;;;13.57;12.10;;;;;;;;;;2100684;28;20032;-61
2022/08/16 02:18:23;;;;;;;16.23;12.68;;;;;;;;;;2100594;28;20024;-61
2022/08/16 02:19:43;;;;;;;13.40;12.10;;;;;;;;;;2100200;28;20119;-61
2022/08/16 02:21:03;;;;;;;14.85;13.30;;;;;;;;;;2096396;28;20032;-61
2022/08/16 02:22:23;;;;;;;13.60;12.32;;;;;;;;;;2097693;28;20036;-61
2022/08/16 02:23:42;;;;;;;13.88;12.63;;;;;;;;;;2099868;28;20025;-61
2022/08/16 02:25:05;;;;;;;14.50;13.15;;;;;;;;;;2099944;28;20630;-61
2022/08/16 02:26:25;;;;;;;;;;;;;;;;;;2098173;28;20048;-61
2022/08/16 02:27:44;;;;;;;13.18;12.18;;;;;;;;;;2098430;28;19909;-61
2022/08/16 02:29:03;;;;;;;14.10;12.80;;;;;;;;;;2099636;28;20505;-61
2022/08/16 02:30:24;;;;;;;19.83;13.27;;;;;;;;;;2098233;28;20033;-61
2022/08/16 02:31:44;;;;;;;14.35;12.90;;;;;;;;;;2098741;28;20020;-61
2022/08/16 02:33:04;;;;;;;14.90;13.38;;;;;;;;;;2098930;28;20025;-61
2022/08/16 02:34:22;;;;;;;14.38;12.88;;;;;;;;;;2096853;28;20040;-61
2022/08/16 02:35:41;;;;;;;15.40;12.88;;;;;;;;;;2099000;28;20029;-61
2022/08/16 02:37:00;;;;;;;14.32;12.95;;;;;;;;;;2099280;28;20028;-61
2022/08/16 02:38:19;;;;;;;14.77;13.40;;;;;;;;;;2099281;28;20040;-61
2022/08/16 02:39:38;;;;;;;15.13;13.60;;;;;;;;;;2099076;28;20447;-61
2022/08/16 02:40:59;;;;;;;14.75;13.18;;;;;;;;;;2097179;28;20463;-61
2022/08/16 02:42:18;;;;;;;19.13;13.75;;;;;;;;;;2099246;28;20029;-61
2022/08/16 02:43:38;;;;;;;16.38;14.00;;;;;;;;;;2099328;28;20032;-61
2022/08/16 02:44:57;;;;;;;14.82;13.40;;;;;;;;;;2095512;28;20606;-61
2022/08/16 02:46:16;;;;;;;14.32;12.95;;;;;;;;;;2096418;28;20024;-61
2022/08/16 02:47:35;;;;;;;16.48;12.90;;;;;;;;;;2099752;28;20040;-61
2022/08/16 02:48:54;;;;;;;14.38;13.20;;;;;;;;;;2096889;28;20045;-61
2022/08/16 02:50:13;;;;;;;14.50;13.15;;;;;;;;;;2097693;28;20061;-61
2022/08/16 02:51:32;;;;;;;18.08;13.73;;;;;;;;;;2099498;28;20032;-61
2022/08/16 02:52:51;;;;;;;14.65;13.23;;;;;;;;;;2095069;28;20041;-61
2022/08/16 02:54:12;;;;;;;15.63;12.88;;;;;;;;;;2099758;28;20042;-61
2022/08/16 02:55:31;;;;;;;14.85;13.10;;;;;;;;;;2097268;28;20025;-61
2022/08/16 02:56:50;;;;;;;14.32;12.85;;;;;;;;;;2099610;28;20036;-61
2022/08/16 02:58:10;;;;;;;16.02;13.63;;;;;;;;;;2098195;28;20024;-61
2022/08/16 02:59:29;;;;;;;14.55;13.05;;;;;;;;;;2098060;28;20052;-61
2022/08/16 03:00:48;;;;;;;14.65;13.20;;;;;;;;;;2098355;28;20020;-61
2022/08/16 03:02:09;;;;;;;15.25;13.15;;;;;;;;;;2098959;28;20381;-61
2022/08/16 03:03:28;;;;;;;15.20;13.77;;;;;;;;;;2097868;28;20103;-61
2022/08/16 03:04:46;;;;;;;16.40;13.82;;;;;;;;;;2097357;28;20036;-61
2022/08/16 03:06:06;;;;;;;15.52;14.07;;;;;;;;;;2101264;28;20522;-61
2022/08/16 03:07:24;;;;;;;15.65;13.90;;;;;;;;;;2097083;28;20389;-61
2022/08/16 03:08:44;;;;;;;14.43;13.10;;;;;;;;;;2097531;28;20401;-61
2022/08/16 03:10:04;;;;;;;15.32;13.32;;;;;;;;;;2100594;28;20020;-61
2022/08/16 03:11:23;;;;;;;20.63;12.95;;;;;;;;;;2101581;28;20044;-61
2022/08/16 03:12:43;;;;;;;15.50;13.65;;;;;;;;;;2095961;28;20036;-61
2022/08/16 03:14:02;;;;;;;18.25;13.23;;;;;;;;;;2097866;28;20056;-61
2022/08/16 03:15:21;;;;;;;14.50;13.05;;;;;;;;;;2094657;28;20012;-61
2022/08/16 03:16:40;;;;;;;15.93;13.30;;;;;;;;;;2099467;28;20024;-61
2022/08/16 03:18:00;;;;;;;17.88;13.43;;;;;;;;;;2100360;28;20617;-61
2022/08/16 03:19:19;;;;;;;14.77;13.38;;;;;;;;;;2098122;28;20024;-61
2022/08/16 03:20:39;;;;;;;14.55;13.02;;;;;;;;;;2099506;28;20484;-62
2022/08/16 03:21:58;;;;;;;15.18;13.63;;;;;;;;;;2099857;28;20124;-61
2022/08/16 03:23:17;;;;;;;15.05;13.63;;;;;;;;;;2095603;28;20492;-61
2022/08/16 03:24:36;;;;;;;17.35;13.82;;;;;;;;;;2097235;28;20127;-62
2022/08/16 03:25:55;;;;;;;16.73;13.25;;;;;;;;;;2097711;28;20025;-61
2022/08/16 03:27:13;;;;;;;18.00;13.75;;;;;;;;;;2101168;28;20028;-61
2022/08/16 03:28:32;;;;;;;18.33;13.57;;;;;;;;;;2097263;28;20090;-61
2022/08/16 03:29:51;;;;;;;16.95;13.77;;;;;;;;;;2096604;28;20020;-61
2022/08/16 03:31:11;;;;;;;15.98;13.55;;;;;;;;;;2100375;28;20393;-61
2022/08/16 03:32:29;;;;;;;15.52;13.98;;;;;;;;;;2099725;28;20028;-61
2022/08/16 03:33:48;;;;;;;15.00;13.45;;;;;;;;;;2096208;28;20032;-62
2022/08/16 03:35:08;;;;;;;15.27;13.60;;;;;;;;;;2100089;28;20029;-61
2022/08/16 03:36:26;;;;;;;14.10;12.63;;;;;;;;;;2099132;28;20032;-61
2022/08/16 03:37:47;;;;;;;17.85;13.50;;;;;;;;;;2096739;28;20111;-61
2022/08/16 03:39:06;;;;;;;15.35;13.90;;;;;;;;;;2096730;28;20605;-61
2022/08/16 03:40:25;;;;;;;16.50;14.32;;;;;;;;;;2101105;28;20044;-61
2022/08/16 03:41:44;;;;;;;14.95;13.02;;;;;;;;;;2099684;28;20469;-61
2022/08/16 03:43:04;;;;;;;18.48;14.40;;;;;;;;;;2097626;28;20508;-61
2022/08/16 03:44:23;;;;;;;19.40;14.02;;;;;;;;;;2097323;28;20060;-61
2022/08/16 03:45:42;;;;;;;17.30;13.70;;;;;;;;;;2099356;28;20493;-61
2022/08/16 03:47:01;;;;;;;16.67;13.40;;;;;;;;;;2096383;28;20477;-61
2022/08/16 03:48:22;;;;;;;17.40;14.32;;;;;;;;;;2097815;28;20028;-60
2022/08/16 03:49:41;;;;;;;16.27;13.90;;;;;;;;;;2099093;28;20101;-61
2022/08/16 03:51:01;;;;;;;14.27;12.93;;;;;;;;;;2101009;28;20499;-61
2022/08/16 03:52:21;;;;;;;18.23;13.95;;;;;;;;;;2099846;28;20033;-61
2022/08/16 03:53:40;;;;;;;17.90;13.73;;;;;;;;;;2100516;28;20033;-61
2022/08/16 03:55:00;;;;;;;15.95;14.30;;;;;;;;;;2101052;28;20108;-61
2022/08/16 03:56:19;;;;;;;14.75;13.23;;;;;;;;;;2099357;28;20119;-60
2022/08/16 03:57:38;;;;;;;14.70;13.15;;;;;;;;;;2099551;28;20095;-61
2022/08/16 03:58:58;;;;;;;14.30;12.90;;;;;;;;;;2100124;28;20029;-61
2022/08/16 04:00:18;;;;;;;17.85;14.43;;;;;;;;;;2098071;28;20390;-61
2022/08/16 04:01:37;;;;;;;23.00;13.60;;;;;;;;;;2100301;28;20036;-61
2022/08/16 04:02:57;;;;;;;15.93;13.38;;;;;;;;;;2099621;28;20044;-61
2022/08/16 04:04:17;;;;;;;14.98;13.57;;;;;;;;;;2100686;28;20036;-61
2022/08/16 04:05:37;;;;;;;17.48;14.32;;;;;;;;;;2099976;28;20032;-61
2022/08/16 04:06:57;;;;;;;15.93;14.18;;;;;;;;;;2099774;28;20049;-61
2022/08/16 04:08:18;;;;;;;15.48;13.90;;;;;;;;;;2096120;28;20485;-61
2022/08/16 04:09:37;;;;;;;18.27;13.35;;;;;;;;;;2096651;28;20036;-61
2022/08/16 04:10:56;;;;;;;18.17;12.82;;;;;;;;;;2099858;28;20032;-61
2022/08/16 04:12:15;;;;;;;13.88;12.65;;;;;;;;;;2100921;28;20032;-61
2022/08/16 04:13:34;;;;;;;16.85;12.98;;;;;;;;;;2098503;28;20032;-61
2022/08/16 04:14:53;;;;;;;16.55;13.43;;;;;;;;;;2099625;28;20399;-63
2022/08/16 04:16:13;;;;;;;14.43;12.82;;;;;;;;;;2100007;28;20067;-61
2022/08/16 04:17:32;;;;;;;16.05;12.73;;;;;;;;;;2096127;28;20124;-61
2022/08/16 04:18:53;;;;;;;14.38;12.02;;;;;;;;;;2098418;28;20513;-61
2022/08/16 04:20:13;;;;;;;13.65;12.45;;;;;;;;;;2096825;28;20032;-61
2022/08/16 04:21:33;;;;;;;14.75;12.80;;;;;;;;;;2098472;28;20651;-61
2022/08/16 04:22:52;;;;;;;14.45;12.95;;;;;;;;;;2099110;28;20036;-62
2022/08/16 04:24:11;;;;;;;17.75;13.15;;;;;;;;;;2099729;28;20075;-61
2022/08/16 04:25:30;;;;;;;15.63;12.95;;;;;;;;;;2098110;28;20025;-61
2022/08/16 04:26:49;;;;;;;16.63;12.40;;;;;;;;;;2096640;28;20393;-62
2022/08/16 04:28:08;;;;;;;16.08;12.48;;;;;;;;;;2097782;28;20477;-61
2022/08/16 04:29:27;;;;;;;16.40;13.15;;;;;;;;;;2097664;28;20040;-61
2022/08/16 04:30:46;;;;;;;16.15;12.20;;;;;;;;;;2096685;28;20393;-61
2022/08/16 04:32:05;;;;;;;17.55;13.02;;;;;;;;;;2099566;28;20067;-61
2022/08/16 04:33:24;;;;;;;14.90;12.60;;;;;;;;;;2098766;28;20446;-61
2022/08/16 04:34:43;;;;;;;16.98;13.00;;;;;;;;;;2098334;28;20032;-61
2022/08/16 04:36:02;;;;;;;14.65;12.63;;;;;;;;;;2097166;28;21006;-61
2022/08/16 04:37:21;;;;;;;15.27;13.05;;;;;;;;;;2098938;28;20317;-62
2022/08/16 04:38:40;;;;;;;15.88;13.82;;;;;;;;;;2095323;28;20119;-61
2022/08/16 04:39:59;;;;;;;16.95;12.52;;;;;;;;;;2095071;28;20123;-61
2022/08/16 04:41:18;;;;;;;14.80;12.70;;;;;;;;;;2098332;28;20032;-62
2022/08/16 04:42:39;;;;;;;14.23;12.80;;;;;;;;;;2096487;28;20068;-61
2022/08/16 04:43:58;;;;;;;19.00;12.73;;;;;;;;;;2097344;28;20031;-61
2022/08/16 04:45:17;;;;;;;18.95;12.63;;;;;;;;;;2096101;28;20103;-61
2022/08/16 04:46:36;;;;;;;16.98;12.45;;;;;;;;;;2098284;28;20497;-61
2022/08/16 04:47:55;;;;;;;14.90;12.15;;;;;;;;;;2095463;28;20032;-62
2022/08/16 04:49:14;;;;;;;14.00;11.98;;;;;;;;;;2098258;28;20485;-61
2022/08/16 04:50:33;;;;;;;14.13;12.18;;;;;;;;;;2097125;28;20032;-61
2022/08/16 04:51:52;;;;;;;15.32;12.60;;;;;;;;;;2100316;28;20102;-61
2022/08/16 04:53:11;;;;;;;16.02;11.88;;;;;;;;;;2097374;28;20020;-61
2022/08/16 04:54:30;;;;;;;16.42;12.07;;;;;;;;;;2097683;28;20447;-61
2022/08/16 04:55:49;;;;;;;22.08;13.15;;;;;;;;;;2099459;28;20033;-62
2022/08/16 04:57:07;;;;;;;16.70;12.63;;;;;;;;;;2098545;28;20456;-62
2022/08/16 04:58:26;;;;;;;23.02;12.52;;;;;;;;;;2094513;28;20032;-62
2022/08/16 04:59:45;;;;;;;18.08;12.10;;;;;;;;;;2096453;28;20031;-61
2022/08/16 05:01:04;;;;;;;13.52;12.05;;;;;;;;;;2097272;28;20040;-61
2022/08/16 05:02:23;;;;;;;19.00;12.23;;;;;;;;;;2099397;28;20882;-61
2022/08/16 05:03:43;;;;;;;20.13;12.88;;;;;;;;;;2093988;28;20485;-62
2022/08/16 05:05:02;;;;;;;13.32;11.95;;;;;;;;;;2097088;28;20036;-62
2022/08/16 05:06:21;;;;;;;24.83;12.40;;;;;;;;;;2099828;28;20028;-62
2022/08/16 05:07:40;;;;;;;20.13;12.88;;;;;;;;;;2096466;28;20016;-62
2022/08/16 05:08:59;;;;;;;18.67;11.85;;;;;;;;;;2096129;28;20052;-62
2022/08/16 05:10:18;;;;;;;14.00;11.70;;;;;;;;;;2097350;28;20538;-62
2022/08/16 05:11:37;;;;;;;14.10;11.57;;;;;;;;;;2094704;28;21219;-62
2022/08/16 05:12:57;;;;;;;15.15;12.07;;;;;;;;;;2098096;28;20024;-62
2022/08/16 05:14:16;;;;;;;17.63;11.82;;;;;;;;;;2094964;28;20757;-64
2022/08/16 05:15:35;;;;;;;25.48;12.02;;;;;;;;;;2090174;28;20064;-64
2022/08/16 05:16:54;;;;;;;15.85;11.70;;;;;;;;;;2096192;28;20024;-64
2022/08/16 05:18:14;;;;;;;18.48;11.82;;;;;;;;;;2095188;28;20025;-64
2022/08/16 05:19:33;;;;;;;15.13;11.70;;;;;;;;;;2097312;28;20389;-64
2022/08/16 05:20:52;;;;;;;16.15;11.57;;;;;;;;;;2096254;28;20025;-64
2022/08/16 05:22:11;;;;;;;17.63;11.80;;;;;;;;;;2098249;28;20023;-64
2022/08/16 05:23:30;;;;;;;23.70;11.63;;;;;;;;;;2099054;28;20037;-64
2022/08/16 05:24:49;;;;;;;12.57;11.35;;;;;;;;;;2097346;28;20493;-64
2022/08/16 05:26:08;;;;;;;13.93;11.40;;;;;;;;;;2098003;28;20056;-64
2022/08/16 05:27:27;;;;;;;18.40;11.43;;;;;;;;;;2099353;28;20123;-64
2022/08/16 05:28:47;;;;;;;15.75;11.77;;;;;;;;;;2100516;28;20438;-64
2022/08/16 05:30:07;;;;;;;18.80;11.43;;;;;;;;;;2098805;28;20131;-63
2022/08/16 05:31:27;;;;;;;16.55;10.77;;;;;;;;;;2098662;28;20024;-64
2022/08/16 05:32:46;;;;;;;17.10;11.63;;;;;;;;;;2099139;28;20052;-64
2022/08/16 05:34:05;;;;;;;20.15;11.18;;;;;;;;;;2100054;28;20029;-64
2022/08/16 05:35:24;;;;;;;19.85;10.98;;;;;;;;;;2097483;28;20032;-63
2022/08/16 05:36:43;;;;;;;17.75;12.07;;;;;;;;;;2097621;28;20032;-64
2022/08/16 05:38:02;;;;;;;14.70;11.52;;;;;;;;;;2099189;28;20028;-64
2022/08/16 05:39:21;;;;;;;20.90;11.80;;;;;;;;;;2098587;28;20393;-64
2022/08/16 05:40:40;;;;;;;16.25;11.10;;;;;;;;;;2098401;28;20966;-64
2022/08/16 05:41:59;;;;;;;16.30;11.35;;;;;;;;;;2098237;28;20037;-64
2022/08/16 05:43:18;;;;;;;19.67;11.07;;;;;;;;;;2098386;28;20040;-64
2022/08/16 05:44:37;;;;;;;16.58;11.38;;;;;;;;;;2098811;28;20115;-64
2022/08/16 05:45:57;;;;;;;15.73;10.35;;;;;;;;;;2095382;28;20115;-64
2022/08/16 05:47:16;;;;;;;17.48;11.23;;;;;;;;;;2099381;28;20024;-63
2022/08/16 05:48:35;;;;;;;27.65;11.35;;;;;;;;;;2098588;28;20024;-64
2022/08/16 05:49:54;;;;;;;17.67;10.95;;;;;;;;;;2098348;28;20028;-64
2022/08/16 05:51:13;;;;;;;14.27;11.38;;;;;;;;;;2098026;28;20028;-64
2022/08/16 05:52:32;;;;;;;19.35;11.45;;;;;;;;;;2098890;28;20059;-64
2022/08/16 05:53:51;;;;;;;21.02;11.60;;;;;;;;;;2098228;28;20481;-64
2022/08/16 05:55:10;;;;;;;15.02;11.05;;;;;;;;;;2096164;28;20036;-64
2022/08/16 05:56:29;;;;;;;18.15;11.43;;;;;;;;;;2099364;28;20032;-64
2022/08/16 05:57:48;;;;;;;14.38;10.55;;;;;;;;;;2099887;28;20028;-63
2022/08/16 05:59:07;;;;;;;19.40;10.65;;;;;;;;;;2096775;28;20032;-64
2022/08/16 06:00:26;;;;;;;18.05;11.85;;;;;;;;;;2098533;28;20119;-64
2022/08/16 06:01:49;;;;;;;26.65;11.52;;;;;;;;;;2097960;28;20111;-64
2022/08/16 06:03:08;;;;;;;12.60;10.98;;;;;;;;;;2096665;28;20027;-64
2022/08/16 06:04:27;;;;;;;20.42;11.63;;;;;;;;;;2097079;28;20032;-64
2022/08/16 06:05:46;;;;;;;18.15;11.60;;;;;;;;;;2098855;28;20032;-63
2022/08/16 06:07:05;;;;;;;21.98;12.00;;;;;;;;;;2098379;28;20029;-64
2022/08/16 06:08:24;;;;;;;22.13;12.05;;;;;;;;;;2097335;28;20020;-63
2022/08/16 06:09:43;;;;;;;23.05;11.60;;;;;;;;;;2099506;28;20107;-64
2022/08/16 06:11:02;;;;;;;22.80;10.60;;;;;;;;;;2099562;28;20056;-64
2022/08/16 06:12:21;;;;;;;17.25;10.95;;;;;;;;;;2098687;28;20500;-64
2022/08/16 06:13:42;;;;;;;17.88;9.88;;;;;;;;;;2098746;28;20036;-65
2022/08/16 06:15:04;;;;;;;16.98;10.93;;;;;;;;;;2097872;28;20028;-64
2022/08/16 06:16:23;;;;;;;12.97;10.50;;;;;;;;;;2099291;28;20107;-64
2022/08/16 06:17:42;;;;;;;13.70;10.93;;;;;;;;;;2100386;28;20036;-64
2022/08/16 06:19:00;;;;;;;22.20;11.68;;;;;;;;;;2097747;28;20040;-64
2022/08/16 06:20:24;;;;;;;18.88;10.73;;;;;;;;;;2099121;28;20032;-64
2022/08/16 06:21:42;;;;;;;14.10;10.25;;;;;;;;;;2099045;28;20481;-64
2022/08/16 06:23:01;;;;;;;16.08;11.40;;;;;;;;;;2096683;28;20037;-64
2022/08/16 06:24:20;;;;;;;17.10;10.73;;;;;;;;;;2099614;28;20025;-64
2022/08/16 06:25:39;;;;;;;18.75;10.80;;;;;;;;;;2097400;28;20040;-64
2022/08/16 06:26:58;;;;;;;18.45;10.75;;;;;;;;;;2096236;28;20063;-63
2022/08/16 06:28:17;;;;;;;12.48;10.82;;;;;;;;;;2097636;28;20032;-64
2022/08/16 06:29:36;;;;;;;12.32;10.98;;;;;;;;;;2098529;28;20046;-64
2022/08/16 06:30:55;;;;;;;18.52;11.20;;;;;;;;;;2100108;28;20032;-64
2022/08/16 06:32:14;;;;;;;13.20;10.35;;;;;;;;;;2102339;28;20420;-64
2022/08/16 06:33:33;;;;;;;16.98;10.48;;;;;;;;;;2101657;28;20054;-64
2022/08/16 06:34:52;;;;;;;26.10;11.43;;;;;;;;;;2099403;28;20381;-64
2022/08/16 06:36:12;;;;;;;19.63;11.00;;;;;;;;;;2101063;28;20040;-64
2022/08/16 06:37:31;;;;;;;12.80;11.15;;;;;;;;;;2099796;28;20028;-63
2022/08/16 06:38:50;;;;;;;19.48;11.40;;;;;;;;;;2101264;28;20062;-64
2022/08/16 06:40:09;;;;;;;19.50;10.98;;;;;;;;;;2100203;28;20035;-65
2022/08/16 06:41:28;;;;;;;18.42;10.20;;;;;;;;;;2100816;28;20036;-64
2022/08/16 06:42:47;;;;;;;21.40;11.02;;;;;;;;;;2097815;28;20221;-63
2022/08/16 06:44:06;;;;;;;17.15;10.88;;;;;;;;;;2100258;28;20024;-64
2022/08/16 06:45:25;;;;;;;23.15;10.55;;;;;;;;;;2098490;28;20481;-59
2022/08/16 06:46:44;;;;;;;18.85;10.23;;;;;;;;;;2097225;28;20028;-58
2022/08/16 06:48:03;;;;;;;16.25;10.13;;;;;;;;;;2097681;28;20040;-58
2022/08/16 06:49:22;;;;;;;20.20;11.20;;;;;;;;;;2098942;28;20066;-60
2022/08/16 06:50:41;;;;;;;13.55;10.68;;;;;;;;;;2100410;28;20021;-60
2022/08/16 06:52:00;;;;;;;17.17;11.93;;;;;;;;;;2100032;28;20124;-60
2022/08/16 06:53:19;;;;;;;14.00;10.95;;;;;;;;;;2099036;28;20393;-60
2022/08/16 06:54:38;;;;;;;16.35;11.30;;;;;;;;;;2100513;28;20028;-58
2022/08/16 06:55:58;;;;;;;13.80;10.85;;;;;;;;;;2101121;28;20032;-58
2022/08/16 06:57:18;;;;;;;14.63;10.93;;;;;;;;;;2100436;28;20437;-59
2022/08/16 06:58:37;;;;;;;17.02;11.02;;;;;;;;;;2100080;28;20040;-59
2022/08/16 06:59:56;;;;;;;16.40;11.05;;;;;;;;;;2098200;28;20028;-59
2022/08/16 07:01:15;;;;;;;13.93;10.63;;;;;;;;;;2098553;28;20028;-59
2022/08/16 07:02:34;;;;;;;17.27;10.82;;;;;;;;;;2098426;28;20028;-57
2022/08/16 07:03:53;;;;;;;15.80;10.98;;;;;;;;;;2097994;28;20037;-59
2022/08/16 07:05:13;;;;;;;19.75;10.55;;;;;;;;;;2100385;28;20040;-60
2022/08/16 07:06:32;;;;;;;15.60;10.18;;;;;;;;;;2099029;28;20032;-62
2022/08/16 07:07:51;;;;;;;15.88;10.82;;;;;;;;;;2099302;28;20024;-61
2022/08/16 07:09:11;;;;;;;12.50;10.80;;;;;;;;;;2099106;28;20028;-60
2022/08/16 07:10:30;;;;;;;14.98;10.82;;;;;;;;;;2100384;28;20016;-61
2022/08/16 07:11:49;;;;;;;14.98;11.30;;;;;;;;;;2099924;28;20040;-61
2022/08/16 07:13:09;;;;;;;20.17;10.90;;;;;;;;;;2098947;28;20028;-61
2022/08/16 07:14:28;;;;;;;16.33;10.70;;;;;;;;;;2100427;28;20496;-61
2022/08/16 07:15:48;;;;;;;13.40;10.55;;;;;;;;;;2096595;28;20048;-61
2022/08/16 07:17:07;;;;;;;17.88;10.82;;;;;;;;;;2098684;28;20028;-61
2022/08/16 07:18:26;;;;;;;21.08;10.60;;;;;;;;;;2101329;28;20478;-61
2022/08/16 07:19:45;;;;;;;15.10;10.80;;;;;;;;;;2099257;28;20044;-61
2022/08/16 07:21:04;;;;;;;15.77;10.70;;;;;;;;;;2098227;28;20029;-61
2022/08/16 07:22:23;;;;;;;14.50;10.20;;;;;;;;;;2099408;28;20063;-61
2022/08/16 07:23:45;;;;;;;19.38;10.68;;;;;;;;;;2096896;28;20040;-61
2022/08/16 07:25:06;;;;;;;19.75;10.10;;;;;;;;;;2101412;28;20333;-61
2022/08/16 07:26:25;;;;;;;13.48;9.95;;;;;;;;;;2098665;28;20040;-61
2022/08/16 07:27:44;;;;;;;16.77;11.10;;;;;;;;;;2098955;28;20419;-61
2022/08/16 07:29:03;;;;;;;15.75;10.48;;;;;;;;;;2099907;28;20028;-61
2022/08/16 07:30:22;;;;;;;16.75;10.20;;;;;;;;;;2098876;28;20064;-64
2022/08/16 07:31:41;;;;;;;20.75;11.02;;;;;;;;;;2099074;28;20036;-60
2022/08/16 07:33:01;;;;;;;12.85;10.23;;;;;;;;;;2098967;28;20465;-61
2022/08/16 07:34:20;;;;;;;16.33;10.65;;;;;;;;;;2098901;28;20569;-61
2022/08/16 07:35:39;;;;;;;15.13;10.60;;;;;;;;;;2100831;28;20146;-61
2022/08/16 07:36:59;;;;;;;19.60;10.68;;;;;;;;;;2100442;28;20032;-61
2022/08/16 07:38:18;;;;;;;14.65;10.65;;;;;;;;;;2100295;28;20032;-61
2022/08/16 07:39:37;;;;;;;16.10;10.45;;;;;;;;;;2100402;28;20040;-61
2022/08/16 07:40:56;;;;;;;12.25;10.32;;;;;;;;;;2100220;28;20052;-61
2022/08/16 07:42:15;;;;;;;20.23;9.63;;;;;;;;;;2099684;28;20029;-61
2022/08/16 07:43:34;;;;;;;12.95;9.32;;;;;;;;;;2097897;28;20463;-61